createdAt,value
2022-09-05T00:02:07.637Z,3.29
2022-09-05T00:05:07.341Z,2.94
2022-09-05T00:07:59.220Z,3.11
2022-09-05T00:10:59.802Z,3.15
2022-09-05T00:13:47.132Z,3.32
2022-09-05T00:16:49.690Z,3.07
2022-09-05T00:24:21.016Z,3.01
2022-09-05T00:24:30.780Z,3.05
2022-09-05T00:26:19.474Z,3.10
2022-09-05T00:28:53.213Z,3.13
2022-09-05T00:31:55.021Z,3.04
2022-09-05T00:35:01.613Z,3.15
2022-09-05T00:37:45.407Z,3.32
2022-09-05T00:40:34.760Z,3.22
2022-09-05T00:43:17.894Z,3.26
2022-09-05T00:46:16.061Z,3.32
2022-09-05T00:49:14.962Z,3.06
2022-09-05T00:52:20.475Z,3.07
2022-09-05T00:54:54.171Z,2.85
2022-09-05T00:58:04.786Z,3.27
2022-09-05T01:00:55.244Z,3.09
2022-09-05T01:03:55.050Z,3.19
2022-09-05T01:06:52.493Z,3.16
2022-09-05T01:09:33.699Z,2.97
2022-09-05T01:12:15.925Z,3.08
2022-09-05T01:15:05.947Z,3.05
2022-09-05T01:17:42.697Z,3.11
2022-09-05T01:20:42.081Z,3.24
2022-09-05T01:23:35.459Z,2.91
2022-09-05T01:26:21.969Z,3.10
2022-09-05T01:29:18.775Z,3.09
2022-09-05T01:32:17.103Z,3.23
2022-09-05T01:35:23.261Z,3.06
2022-09-05T01:38:33.010Z,3.09
2022-09-05T01:41:28.424Z,3.16
2022-09-05T01:44:05.663Z,3.04
2022-09-05T01:46:39.527Z,2.93
2022-09-05T01:49:25.405Z,2.98
2022-09-05T01:52:27.814Z,2.88
2022-09-05T01:55:26.065Z,3.03
2022-09-05T01:58:13.187Z,3.02
2022-09-05T02:00:49.535Z,2.97
2022-09-05T02:03:29.387Z,2.71
2022-09-05T02:06:51.312Z,3.02
2022-09-05T02:09:42.260Z,2.81
2022-09-05T02:12:15.991Z,2.85
2022-09-05T02:15:06.838Z,3.00
2022-09-05T02:17:51.213Z,2.81
2022-09-05T02:20:35.515Z,2.99
2022-09-05T02:23:32.660Z,2.86
2022-09-05T02:26:25.518Z,2.98
2022-09-05T02:29:29.285Z,2.81
2022-09-05T02:32:27.443Z,2.74
2022-09-05T02:35:13.732Z,2.90
2022-09-05T02:39:07.544Z,2.70
2022-09-05T02:45:14.074Z,2.94
2022-09-05T02:45:24.240Z,2.76
2022-09-05T02:47:22.450Z,2.94
2022-09-05T02:57:07.825Z,3.00
2022-09-05T02:57:33.187Z,2.94
2022-09-05T02:57:34.403Z,2.98
2022-09-05T02:59:43.662Z,3.02
2022-09-05T03:02:37.331Z,3.34
2022-09-05T03:05:44.601Z,2.89
2022-09-05T03:08:58.242Z,3.11
2022-09-05T03:12:21.717Z,3.10
2022-09-05T03:15:36.549Z,3.06
2022-09-05T03:18:29.186Z,3.43
2022-09-05T03:21:16.189Z,3.31
2022-09-05T03:23:59.261Z,3.22
2022-09-05T03:27:16.100Z,3.30
2022-09-05T03:29:50.014Z,3.35
2022-09-05T03:32:49.335Z,3.15
2022-09-05T03:35:56.070Z,3.34
2022-09-05T03:38:26.918Z,3.12
2022-09-05T03:41:40.551Z,3.24
2022-09-05T03:44:42.067Z,3.48
2022-09-05T03:47:49.054Z,3.00
2022-09-05T03:57:10.413Z,2.96
2022-09-05T03:57:13.843Z,3.16
2022-09-05T03:57:38.649Z,3.01
2022-09-05T04:00:14.686Z,3.17
2022-09-05T04:08:06.745Z,2.97
2022-09-05T04:08:25.310Z,3.05
2022-09-05T04:09:31.544Z,3.17
2022-09-05T04:12:24.115Z,2.92
2022-09-05T04:15:25.864Z,2.88
2022-09-05T04:18:14.012Z,3.25
2022-09-05T04:21:16.861Z,3.10
2022-09-05T04:24:26.388Z,3.20
2022-09-05T04:27:27.797Z,3.00
2022-09-05T04:29:58.659Z,3.22
2022-09-05T04:32:54.567Z,3.20
2022-09-05T04:35:50.224Z,3.19
2022-09-05T04:38:37.224Z,3.19
2022-09-05T04:41:16.510Z,3.04
2022-09-05T04:43:53.062Z,3.12
2022-09-05T04:46:28.966Z,3.10
2022-09-05T04:49:12.863Z,3.03
2022-09-05T04:52:22.383Z,2.82
2022-09-05T04:55:17.597Z,2.91
2022-09-05T04:58:12.873Z,3.08
2022-09-05T05:06:04.142Z,3.01
2022-09-05T05:06:24.917Z,3.11
2022-09-05T05:06:52.071Z,3.09
2022-09-05T05:09:34.828Z,2.94
2022-09-05T05:18:01.024Z,3.14
2022-09-05T05:18:09.599Z,3.13
2022-09-05T05:18:37.806Z,3.15
2022-09-05T05:21:19.817Z,3.13
2022-09-05T05:24:01.661Z,3.62
2022-09-05T05:26:41.045Z,3.12
2022-09-05T05:29:29.893Z,3.02
2022-09-05T05:32:03.472Z,2.87
2022-09-05T05:34:42.212Z,3.24
2022-09-05T05:37:21.942Z,3.27
2022-09-05T05:40:14.920Z,3.44
2022-09-05T05:42:47.527Z,3.53
2022-09-05T05:45:29.051Z,3.45
2022-09-05T05:48:29.730Z,3.76
2022-09-05T05:51:06.705Z,4.12
2022-09-05T05:53:44.432Z,3.33
2022-09-05T05:56:40.084Z,3.58
2022-09-05T05:59:14.954Z,3.55
2022-09-05T06:02:04.470Z,3.43
2022-09-05T06:04:50.868Z,3.35
2022-09-05T06:08:46.334Z,2.99
2022-09-05T06:14:50.209Z,2.80
2022-09-05T06:14:56.248Z,2.87
2022-09-05T06:17:07.246Z,2.67
2022-09-05T06:21:12.757Z,2.64
2022-09-05T06:22:56.449Z,2.53
2022-09-05T06:25:54.702Z,2.47
2022-09-05T06:29:00.335Z,2.46
2022-09-05T06:31:50.303Z,2.35
2022-09-05T06:34:35.306Z,2.40
2022-09-05T06:37:22.397Z,2.39
2022-09-05T06:40:12.520Z,2.33
2022-09-05T06:43:01.593Z,2.44
2022-09-05T06:45:46.674Z,2.37
2022-09-05T06:48:46.007Z,2.25
2022-09-05T06:51:44.873Z,1.92
2022-09-05T06:54:56.389Z,2.16
2022-09-05T06:57:43.880Z,2.23
2022-09-05T07:00:29.325Z,2.04
2022-09-05T07:03:22.837Z,2.02
2022-09-05T07:06:40.066Z,1.90
2022-09-05T07:09:52.301Z,1.93
2022-09-05T07:12:32.729Z,1.72
2022-09-05T07:15:32.498Z,1.93
2022-09-05T07:18:22.203Z,2.21
2022-09-05T07:21:17.878Z,1.98
2022-09-05T07:24:08.772Z,2.12
2022-09-05T07:26:51.983Z,1.84
2022-09-05T07:29:53.221Z,1.71
2022-09-05T07:32:32.281Z,1.79
2022-09-05T07:35:05.549Z,1.87
2022-09-05T07:37:45.987Z,1.91
2022-09-05T07:40:25.291Z,2.13
2022-09-05T07:43:09.210Z,1.94
2022-09-05T07:45:58.625Z,2.00
2022-09-05T07:48:35.166Z,1.78
2022-09-05T07:56:51.197Z,1.77
2022-09-05T07:57:10.213Z,1.68
2022-09-05T07:57:51.933Z,1.77
2022-09-05T08:00:29.413Z,1.50
2022-09-05T08:03:13.113Z,1.72
2022-09-05T08:05:54.348Z,1.74
2022-09-05T08:08:55.973Z,1.89
2022-09-05T08:11:38.454Z,1.78
2022-09-05T08:14:44.019Z,2.08
2022-09-05T08:17:08.425Z,1.97
2022-09-05T08:20:08.633Z,2.03
2022-09-05T08:23:01.389Z,2.11
2022-09-05T08:25:56.461Z,1.71
2022-09-05T08:28:38.876Z,1.71
2022-09-05T08:31:25.166Z,1.68
2022-09-05T08:34:00.475Z,1.57
2022-09-05T08:36:34.285Z,1.50
2022-09-05T08:39:06.705Z,1.47
2022-09-05T08:42:18.251Z,1.70
2022-09-05T08:46:42.192Z,1.37
2022-09-05T08:48:08.329Z,1.35
2022-09-05T08:50:51.472Z,1.04
2022-09-05T08:53:47.337Z,1.10
2022-09-05T08:56:52.204Z,1.09
2022-09-05T09:00:19.656Z,1.27
2022-09-05T09:03:04.089Z,1.18
2022-09-05T09:06:13.651Z,1.43
2022-09-05T09:09:07.032Z,1.11
2022-09-05T09:11:51.456Z,1.26
2022-09-05T09:14:35.834Z,1.04
2022-09-05T09:17:19.881Z,1.35
2022-09-05T09:19:51.770Z,1.23
2022-09-05T09:22:39.409Z,1.07
2022-09-05T09:25:26.447Z,1.38
2022-09-05T09:28:49.514Z,1.37
2022-09-05T09:31:45.681Z,1.32
2022-09-05T09:34:25.664Z,1.22
2022-09-05T09:37:15.477Z,1.15
2022-09-05T09:40:18.315Z,1.17
2022-09-05T09:42:51.611Z,1.25
2022-09-05T09:45:42.652Z,1.20
2022-09-05T09:51:47.800Z,1.08
2022-09-05T09:54:44.647Z,1.32
2022-09-05T09:57:37.537Z,1.19
2022-09-05T10:00:21.801Z,1.38
2022-09-05T10:05:08.322Z,1.34
2022-09-05T10:10:48.194Z,1.30
2022-09-05T10:11:09.667Z,1.31
2022-09-05T10:13:08.332Z,1.36
2022-09-05T10:15:55.453Z,1.19
2022-09-05T10:18:47.322Z,1.19
2022-09-05T10:21:33.817Z,1.48
2022-09-05T10:24:25.850Z,1.21
2022-09-05T10:27:32.600Z,1.21
2022-09-05T10:31:18.314Z,1.16
2022-09-05T10:35:07.808Z,1.48
2022-09-05T10:36:25.016Z,1.33
2022-09-05T10:39:07.977Z,1.27
2022-09-05T10:41:49.953Z,1.23
2022-09-05T10:44:42.966Z,1.36
2022-09-05T10:47:41.728Z,1.16
2022-09-05T10:50:35.174Z,1.31
2022-09-05T10:53:52.271Z,1.16
2022-09-05T10:56:39.852Z,1.31
2022-09-05T11:02:24.157Z,1.16
2022-09-05T11:02:38.381Z,1.17
2022-09-05T11:05:33.124Z,1.41
2022-09-05T11:08:20.364Z,1.06
2022-09-05T11:11:17.347Z,1.18
2022-09-05T11:14:00.827Z,1.38
2022-09-05T11:16:40.826Z,1.13
2022-09-05T11:19:39.831Z,1.19
2022-09-05T11:22:23.025Z,1.27
2022-09-05T11:25:08.461Z,1.27
2022-09-05T11:27:47.311Z,1.31
2022-09-05T11:30:30.269Z,1.38
2022-09-05T11:39:23.993Z,1.24
2022-09-05T11:40:03.624Z,1.27
2022-09-05T11:40:09.003Z,1.34
2022-09-05T11:42:43.780Z,1.49
2022-09-05T11:45:16.427Z,1.30
2022-09-05T11:48:13.072Z,1.30
2022-09-05T11:51:33.293Z,1.34
2022-09-05T11:54:32.900Z,1.29
2022-09-05T11:57:33.948Z,1.22
2022-09-05T12:00:33.391Z,1.26
2022-09-05T12:03:58.869Z,1.33
2022-09-05T12:06:56.909Z,1.48
2022-09-05T12:10:02.317Z,1.43
2022-09-05T12:12:41.213Z,1.37
2022-09-05T12:15:34.951Z,1.43
2022-09-05T12:18:34.762Z,1.42
2022-09-05T12:21:02.368Z,1.24
2022-09-05T12:24:48.158Z,1.43
2022-09-05T12:27:38.933Z,1.43
2022-09-05T12:30:13.990Z,1.33
2022-09-05T12:36:03.555Z,1.51
2022-09-05T12:36:13.306Z,1.73
2022-09-05T12:41:32.036Z,1.69
2022-09-05T12:42:14.566Z,1.55
2022-09-05T12:45:09.737Z,1.53
2022-09-05T12:48:20.969Z,1.73
2022-09-05T12:51:07.026Z,1.56
2022-09-05T12:53:46.967Z,1.57
2022-09-05T12:58:27.075Z,1.56
2022-09-05T13:03:04.929Z,1.84
2022-09-05T13:03:09.053Z,1.51
2022-09-05T13:05:19.939Z,1.62
2022-09-05T13:07:58.829Z,1.65
2022-09-05T13:14:48.291Z,1.98
2022-09-05T13:14:53.194Z,1.74
2022-09-05T13:16:32.259Z,1.84
2022-09-05T13:19:07.714Z,1.65
2022-09-05T13:21:45.634Z,1.65
2022-09-05T13:24:27.440Z,1.61
2022-09-05T13:27:07.797Z,1.65
2022-09-05T13:31:19.854Z,1.68
2022-09-05T13:37:55.595Z,1.80
2022-09-05T13:38:17.618Z,1.80
2022-09-05T13:39:13.418Z,1.77
2022-09-05T13:41:53.155Z,1.71
2022-09-05T13:44:27.571Z,1.88
2022-09-05T13:47:28.856Z,1.81
2022-09-05T13:50:27.369Z,2.07
2022-09-05T13:53:16.150Z,2.00
2022-09-05T13:56:03.584Z,1.77
2022-09-05T13:58:57.057Z,2.12
2022-09-05T14:01:54.559Z,2.01
2022-09-05T14:05:07.422Z,2.30
2022-09-05T14:08:18.000Z,2.06
2022-09-05T14:11:02.177Z,1.86
2022-09-05T14:14:11.580Z,2.03
2022-09-05T14:16:53.494Z,1.99
2022-09-05T14:19:43.715Z,1.89
2022-09-05T14:22:31.876Z,1.87
2022-09-05T14:25:03.613Z,1.94
2022-09-05T14:27:34.168Z,1.96
2022-09-05T14:30:36.937Z,1.83
2022-09-05T14:37:48.157Z,1.84
2022-09-05T14:37:52.109Z,1.88
2022-09-05T14:39:48.673Z,2.10
2022-09-05T14:42:28.580Z,1.99
2022-09-05T14:45:22.953Z,1.73
2022-09-05T14:47:53.561Z,1.70
2022-09-05T14:50:40.039Z,2.05
2022-09-05T14:57:23.668Z,1.83
2022-09-05T15:02:43.340Z,2.03
2022-09-05T15:02:47.894Z,1.80
2022-09-05T15:05:10.946Z,2.02
2022-09-05T15:07:45.962Z,1.90
2022-09-05T15:12:19.689Z,1.92
2022-09-05T15:13:20.391Z,2.14
2022-09-05T15:16:11.542Z,2.19
2022-09-05T15:18:49.488Z,1.97
2022-09-05T15:21:33.520Z,1.87
2022-09-05T15:24:15.810Z,1.83
2022-09-05T15:26:53.916Z,2.05
2022-09-05T15:29:34.951Z,1.98
2022-09-05T15:32:22.681Z,1.86
2022-09-05T15:34:54.536Z,2.07
2022-09-05T15:37:36.897Z,2.10
2022-09-05T15:40:23.854Z,2.31
2022-09-05T15:43:00.763Z,2.24
2022-09-05T15:45:35.399Z,2.22
2022-09-05T15:48:15.360Z,2.21
2022-09-05T15:50:57.093Z,2.17
2022-09-05T15:53:29.325Z,2.26
2022-09-05T15:56:18.322Z,2.64
2022-09-05T15:58:55.380Z,2.35
2022-09-05T16:01:59.477Z,2.28
2022-09-05T16:07:57.124Z,5.46
2022-09-05T16:10:34.970Z,3.90
2022-09-05T16:10:59.255Z,3.07
2022-09-05T16:13:17.930Z,2.59
2022-09-05T16:21:09.620Z,2.64
2022-09-05T16:23:14.501Z,2.42
2022-09-05T16:23:28.091Z,2.42
2022-09-05T16:24:59.908Z,2.56
2022-09-05T16:27:43.815Z,2.84
2022-09-05T16:30:20.156Z,2.02
2022-09-05T16:32:53.088Z,1.87
2022-09-05T16:35:25.103Z,1.86
2022-09-05T16:38:07.101Z,1.90
2022-09-05T16:40:47.168Z,1.90
2022-09-05T16:43:33.808Z,1.86
2022-09-05T16:46:20.730Z,1.93
2022-09-05T16:49:00.339Z,1.81
2022-09-05T16:51:38.640Z,1.97
2022-09-05T16:54:13.265Z,1.76
2022-09-05T16:57:01.298Z,1.83
2022-09-05T16:59:43.400Z,2.33
2022-09-05T17:02:14.292Z,2.27
2022-09-05T17:05:05.722Z,1.99
2022-09-05T17:07:56.169Z,2.12
2022-09-05T17:10:57.231Z,2.12
2022-09-05T17:13:47.244Z,2.42
2022-09-05T17:16:34.799Z,2.25
2022-09-05T17:19:03.131Z,2.08
2022-09-05T17:23:42.859Z,1.95
2022-09-05T17:29:18.816Z,2.04
2022-09-05T17:29:27.748Z,1.98
2022-09-05T17:33:44.755Z,2.15
2022-09-05T17:36:41.066Z,2.05
2022-09-05T17:39:45.528Z,2.09
2022-09-05T17:42:32.786Z,1.93
2022-09-05T17:45:21.837Z,1.92
2022-09-05T17:47:53.619Z,2.09
2022-09-05T17:50:21.309Z,1.94
2022-09-05T17:53:26.112Z,2.19
2022-09-05T17:55:55.316Z,1.92
2022-09-05T17:58:48.845Z,2.94
2022-09-05T18:01:30.284Z,2.35
2022-09-05T18:04:17.298Z,2.12
2022-09-05T18:06:51.088Z,2.29
2022-09-05T18:09:48.046Z,2.32
2022-09-05T18:13:31.092Z,2.12
2022-09-05T18:15:40.274Z,2.08
2022-09-05T18:18:18.430Z,2.16
2022-09-05T18:21:21.858Z,2.12
2022-09-05T18:24:04.337Z,2.33
2022-09-05T18:26:46.875Z,2.38
2022-09-05T18:29:58.467Z,2.36
2022-09-05T18:32:54.327Z,2.34
2022-09-05T18:36:00.578Z,2.47
2022-09-05T18:38:51.782Z,2.37
2022-09-05T18:41:28.221Z,2.35
2022-09-05T18:44:20.013Z,2.36
2022-09-05T18:46:53.958Z,2.56
2022-09-05T18:50:25.878Z,2.62
2022-09-05T18:52:27.231Z,2.42
2022-09-05T18:55:31.718Z,2.38
2022-09-05T18:57:57.995Z,2.68
2022-09-05T19:00:46.838Z,2.69
2022-09-05T19:03:28.777Z,2.75
2022-09-05T19:06:36.360Z,2.32
2022-09-05T19:09:08.035Z,2.80
2022-09-05T19:11:53.198Z,2.82
2022-09-05T19:14:49.669Z,2.54
2022-09-05T19:17:27.400Z,2.58
2022-09-05T19:20:31.574Z,2.62
2022-09-05T19:23:12.852Z,2.63
2022-09-05T19:25:46.635Z,2.51
2022-09-05T19:36:50.858Z,2.83
2022-09-05T19:37:06.084Z,2.71
2022-09-05T19:37:12.859Z,2.75
2022-09-05T19:37:30.375Z,2.72
2022-09-05T19:45:41.002Z,2.94
2022-09-05T19:47:33.996Z,3.11
2022-09-05T19:47:49.803Z,2.85
2022-09-05T19:48:35.080Z,2.90
2022-09-05T19:51:18.255Z,2.89
2022-09-05T19:54:05.095Z,2.87
2022-09-05T19:56:39.309Z,2.85
2022-09-05T19:59:25.203Z,2.81
2022-09-05T20:01:53.399Z,2.80
2022-09-05T20:04:22.041Z,3.08
2022-09-05T20:06:51.350Z,3.06
2022-09-05T20:09:21.950Z,2.89
2022-09-05T20:11:52.645Z,2.72
2022-09-05T20:14:31.958Z,2.88
2022-09-05T20:17:26.775Z,2.96
2022-09-05T20:20:15.229Z,3.09
2022-09-05T20:22:50.998Z,2.75
2022-09-05T20:25:36.853Z,3.05
2022-09-05T20:28:20.688Z,2.90
2022-09-05T20:30:58.162Z,3.03
2022-09-05T20:33:43.424Z,3.41
2022-09-05T20:43:17.392Z,3.14
2022-09-05T20:43:18.293Z,3.17
2022-09-05T20:43:24.001Z,3.29
2022-09-05T20:44:51.474Z,3.16
2022-09-05T20:51:10.620Z,3.12
2022-09-05T20:54:16.437Z,2.80
2022-09-05T20:54:20.541Z,2.91
2022-09-05T20:56:32.734Z,3.12
2022-09-05T20:59:03.702Z,2.84
2022-09-05T21:01:32.603Z,2.67
2022-09-05T21:04:03.559Z,2.77
2022-09-05T21:06:36.189Z,2.79
2022-09-05T21:09:25.787Z,2.82
2022-09-05T21:11:56.204Z,2.59
2022-09-05T21:14:27.022Z,2.44
2022-09-05T21:17:15.089Z,2.46
2022-09-05T21:19:54.097Z,2.54
2022-09-05T21:22:25.135Z,2.37
2022-09-05T21:25:43.794Z,2.45
2022-09-05T21:28:36.519Z,2.51
2022-09-05T21:31:17.103Z,2.63
2022-09-05T21:33:46.234Z,2.53
2022-09-05T21:36:16.284Z,2.62
2022-09-05T21:38:44.589Z,2.30
2022-09-05T21:41:16.257Z,2.44
2022-09-05T21:47:38.478Z,2.40
2022-09-05T21:47:47.667Z,2.38
2022-09-05T21:49:23.369Z,2.37
2022-09-05T21:51:51.980Z,2.60
2022-09-05T21:59:16.979Z,2.43
2022-09-05T21:59:24.925Z,2.52
2022-09-05T22:00:17.060Z,2.38
2022-09-05T22:02:46.910Z,2.20
2022-09-05T22:05:14.768Z,2.25
2022-09-05T22:07:44.119Z,2.44
2022-09-05T22:10:12.959Z,2.54
2022-09-05T22:12:40.960Z,2.52
2022-09-05T22:15:27.565Z,2.35
2022-09-05T22:18:17.740Z,2.66
2022-09-05T22:21:31.627Z,2.23
2022-09-05T22:23:45.615Z,2.21
2022-09-05T22:26:16.389Z,2.16
2022-09-05T22:28:49.030Z,2.61
2022-09-05T22:31:19.330Z,2.48
2022-09-05T22:33:50.834Z,2.20
2022-09-05T22:36:19.140Z,2.04
2022-09-05T22:38:47.882Z,2.17
2022-09-05T22:41:15.463Z,2.34
2022-09-05T22:43:46.399Z,2.67
2022-09-05T22:46:17.504Z,2.33
2022-09-05T22:48:45.198Z,2.24
2022-09-05T22:51:19.019Z,2.25
2022-09-05T22:53:46.827Z,2.33
2022-09-05T22:56:29.264Z,2.29
2022-09-05T22:58:56.827Z,2.37
2022-09-05T23:01:25.758Z,2.46
2022-09-05T23:03:54.119Z,2.74
2022-09-05T23:06:21.678Z,2.63
2022-09-05T23:08:49.635Z,2.59
2022-09-05T23:11:19.068Z,2.74
2022-09-05T23:13:46.971Z,2.68
2022-09-05T23:16:14.604Z,2.67
2022-09-05T23:18:42.812Z,2.93
2022-09-05T23:21:15.089Z,3.13
2022-09-05T23:23:43.737Z,3.18
2022-09-05T23:26:14.119Z,3.25
2022-09-05T23:28:43.681Z,3.26
2022-09-05T23:31:13.259Z,3.40
2022-09-05T23:33:42.452Z,3.57
2022-09-05T23:36:15.293Z,3.87
2022-09-05T23:38:43.925Z,4.15
2022-09-05T23:41:16.300Z,4.02
2022-09-05T23:43:43.853Z,4.17
2022-09-05T23:46:15.778Z,3.81
2022-09-05T23:48:44.990Z,3.78
2022-09-05T23:51:16.123Z,3.57
2022-09-05T23:53:45.223Z,3.36
2022-09-05T23:56:14.289Z,3.44
2022-09-05T23:58:41.972Z,3.62
